sensor_id;sensor_type;location;lat;lon;timestamp;temperature;humidity
9265;DHT22;4669;49.594;10.958;2023-06-24T04:27:23;16.20;99.90
9265;DHT22;4669;49.594;10.958;2023-06-24T04:32:25;16.30;99.90
9265;DHT22;4669;49.594;10.958;2023-06-24T04:37:26;16.30;99.90
9265;DHT22;4669;49.594;10.958;2023-06-24T04:42:30;16.20;99.90
9265;DHT22;4669;49.594;10.958;2023-06-24T04:47:32;16.30;99.90
9265;DHT22;4669;49.594;10.958;2023-06-24T04:52:34;16.30;99.90
9265;DHT22;4669;49.594;10.958;2023-06-24T04:57:37;16.30;99.90
9265;DHT22;4669;49.594;10.958;2023-06-24T05:02:39;16.40;99.90
9265;DHT22;4669;49.594;10.958;2023-06-24T05:07:41;16.50;99.90
9265;DHT22;4669;49.594;10.958;2023-06-24T05:12:44;16.50;99.90
9265;DHT22;4669;49.594;10.958;2023-06-24T05:17:46;16.60;99.90
9265;DHT22;4669;49.594;10.958;2023-06-24T05:22:47;16.60;99.90
9265;DHT22;4669;49.594;10.958;2023-06-24T05:27:51;16.60;99.90
9265;DHT22;4669;49.594;10.958;2023-06-24T05:32:52;16.60;99.90
9265;DHT22;4669;49.594;10.958;2023-06-24T05:37:54;16.60;99.90
9265;DHT22;4669;49.594;10.958;2023-06-24T05:42:57;16.60;99.90
9265;DHT22;4669;49.594;10.958;2023-06-24T05:47:59;16.70;99.90
9265;DHT22;4669;49.594;10.958;2023-06-24T05:53:01;16.80;99.90
9265;DHT22;4669;49.594;10.958;2023-06-24T05:58:04;16.90;99.90
9265;DHT22;4669;49.594;10.958;2023-06-24T06:03:06;17.00;99.90
9265;DHT22;4669;49.594;10.958;2023-06-24T06:08:08;17.00;99.90
9265;DHT22;4669;49.594;10.958;2023-06-24T06:13:11;17.00;99.90
9265;DHT22;4669;49.594;10.958;2023-06-24T06:18:13;17.10;99.90
9265;DHT22;4669;49.594;10.958;2023-06-24T06:23:16;17.20;99.90
9265;DHT22;4669;49.594;10.958;2023-06-24T06:28:19;17.30;99.90
9265;DHT22;4669;49.594;10.958;2023-06-24T06:33:21;17.30;99.90
9265;DHT22;4669;49.594;10.958;2023-06-24T06:38:23;17.40;99.90
9265;DHT22;4669;49.594;10.958;2023-06-24T06:43:26;17.60;99.90
9265;DHT22;4669;49.594;10.958;2023-06-24T06:48:28;17.70;99.90
9265;DHT22;4669;49.594;10.958;2023-06-24T06:53:29;17.80;99.90
9265;DHT22;4669;49.594;10.958;2023-06-24T06:58:33;17.90;99.90
9265;DHT22;4669;49.594;10.958;2023-06-24T07:03:34;18.00;99.90
9265;DHT22;4669;49.594;10.958;2023-06-24T07:08:36;18.10;99.90
9265;DHT22;4669;49.594;10.958;2023-06-24T07:13:40;18.20;99.90
9265;DHT22;4669;49.594;10.958;2023-06-24T07:18:41;18.30;99.90
9265;DHT22;4669;49.594;10.958;2023-06-24T07:23:43;18.40;99.90
9265;DHT22;4669;49.594;10.958;2023-06-24T07:28:47;18.50;99.90
9265;DHT22;4669;49.594;10.958;2023-06-24T07:33:49;18.50;99.90
9265;DHT22;4669;49.594;10.958;2023-06-24T07:38:51;18.60;99.90
9265;DHT22;4669;49.594;10.958;2023-06-24T07:43:54;18.70;99.90
9265;DHT22;4669;49.594;10.958;2023-06-24T07:48:56;18.80;99.90
9265;DHT22;4669;49.594;10.958;2023-06-24T07:53:58;18.90;99.90
9265;DHT22;4669;49.594;10.958;2023-06-24T07:59:01;19.10;99.90
9265;DHT22;4669;49.594;10.958;2023-06-24T08:04:03;19.10;99.90
9265;DHT22;4669;49.594;10.958;2023-06-24T08:09:05;19.10;99.90
9265;DHT22;4669;49.594;10.958;2023-06-24T08:14:08;19.10;99.90
9265;DHT22;4669;49.594;10.958;2023-06-24T08:19:10;19.30;99.90
9265;DHT22;4669;49.594;10.958;2023-06-24T08:24:12;19.60;99.90
9265;DHT22;4669;49.594;10.958;2023-06-24T08:29:15;19.70;99.90
9265;DHT22;4669;49.594;10.958;2023-06-24T08:34:17;19.80;99.90
9265;DHT22;4669;49.594;10.958;2023-06-24T08:39:19;19.80;99.60
9265;DHT22;4669;49.594;10.958;2023-06-24T08:44:22;20.00;97.30
9265;DHT22;4669;49.594;10.958;2023-06-24T08:49:28;20.00;97.60
9265;DHT22;4669;49.594;10.958;2023-06-24T08:54:33;20.10;97.40
9265;DHT22;4669;49.594;10.958;2023-06-24T08:59:37;20.30;95.90
9265;DHT22;4669;49.594;10.958;2023-06-24T09:04:40;20.50;95.50
9265;DHT22;4669;49.594;10.958;2023-06-24T09:09:43;20.50;95.70
9265;DHT22;4669;49.594;10.958;2023-06-24T09:14:49;20.50;93.90
9265;DHT22;4669;49.594;10.958;2023-06-24T09:19:52;20.50;93.60
9265;DHT22;4669;49.594;10.958;2023-06-24T09:24:54;20.40;93.90
9265;DHT22;4669;49.594;10.958;2023-06-24T09:29:58;20.50;93.10
9265;DHT22;4669;49.594;10.958;2023-06-24T09:35:03;20.90;92.80
9265;DHT22;4669;49.594;10.958;2023-06-24T09:40:08;21.00;93.20
9265;DHT22;4669;49.594;10.958;2023-06-24T09:45:12;20.90;92.50
9265;DHT22;4669;49.594;10.958;2023-06-24T09:50:14;21.10;92.60
9265;DHT22;4669;49.594;10.958;2023-06-24T09:55:17;21.30;92.80
9265;DHT22;4669;49.594;10.958;2023-06-24T10:00:21;21.30;93.50
9265;DHT22;4669;49.594;10.958;2023-06-24T10:05:24;21.30;92.70
9265;DHT22;4669;49.594;10.958;2023-06-24T10:10:25;21.60;91.80
9265;DHT22;4669;49.594;10.958;2023-06-24T10:15:29;21.60;92.10
9265;DHT22;4669;49.594;10.958;2023-06-24T10:20:36;21.80;91.60
9265;DHT22;4669;49.594;10.958;2023-06-24T10:25:38;21.70;91.30
9265;DHT22;4669;49.594;10.958;2023-06-24T10:30:54;21.70;91.90
9265;DHT22;4669;49.594;10.958;2023-06-24T10:35:56;21.70;90.90
9265;DHT22;4669;49.594;10.958;2023-06-24T10:40:58;21.90;91.10
9265;DHT22;4669;49.594;10.958;2023-06-24T10:46:07;21.70;90.60
9265;DHT22;4669;49.594;10.958;2023-06-24T10:51:16;22.10;87.70
9265;DHT22;4669;49.594;10.958;2023-06-24T10:56:19;22.20;86.70
9265;DHT22;4669;49.594;10.958;2023-06-24T11:01:25;22.30;87.30
9265;DHT22;4669;49.594;10.958;2023-06-24T11:06:26;22.10;88.60
9265;DHT22;4669;49.594;10.958;2023-06-24T11:11:29;22.30;88.60
9265;DHT22;4669;49.594;10.958;2023-06-24T11:16:32;22.30;88.00
9265;DHT22;4669;49.594;10.958;2023-06-24T11:21:35;22.60;86.90
9265;DHT22;4669;49.594;10.958;2023-06-24T11:26:37;22.50;87.80
9265;DHT22;4669;49.594;10.958;2023-06-24T11:31:41;22.70;87.50
9265;DHT22;4669;49.594;10.958;2023-06-24T11:36:43;22.60;87.70
9265;DHT22;4669;49.594;10.958;2023-06-24T11:41:44;22.80;86.20
9265;DHT22;4669;49.594;10.958;2023-06-24T11:46:48;23.00;85.10
9265;DHT22;4669;49.594;10.958;2023-06-24T11:51:50;23.10;84.50
9265;DHT22;4669;49.594;10.958;2023-06-24T11:56:53;23.10;85.30
9265;DHT22;4669;49.594;10.958;2023-06-24T12:01:58;23.40;85.80
9265;DHT22;4669;49.594;10.958;2023-06-24T12:07:03;23.40;84.70
9265;DHT22;4669;49.594;10.958;2023-06-24T12:12:06;23.40;85.30
9265;DHT22;4669;49.594;10.958;2023-06-24T12:17:09;23.40;84.80
9265;DHT22;4669;49.594;10.958;2023-06-24T12:22:11;23.10;85.70
9265;DHT22;4669;49.594;10.958;2023-06-24T12:27:13;23.20;85.00
9265;DHT22;4669;49.594;10.958;2023-06-24T12:32:16;23.30;86.40
9265;DHT22;4669;49.594;10.958;2023-06-24T12:37:18;23.80;81.80
9265;DHT22;4669;49.594;10.958;2023-06-24T12:42:20;24.00;80.90
9265;DHT22;4669;49.594;10.958;2023-06-24T12:47:23;24.40;78.90
9265;DHT22;4669;49.594;10.958;2023-06-24T12:52:25;24.60;78.90
9265;DHT22;4669;49.594;10.958;2023-06-24T12:57:27;24.60;78.50
9265;DHT22;4669;49.594;10.958;2023-06-24T13:02:30;24.30;81.60
9265;DHT22;4669;49.594;10.958;2023-06-24T13:07:32;24.10;82.20
9265;DHT22;4669;49.594;10.958;2023-06-24T13:12:34;24.00;83.40
9265;DHT22;4669;49.594;10.958;2023-06-24T13:17:37;24.30;81.20
9265;DHT22;4669;49.594;10.958;2023-06-24T13:22:39;24.70;78.90
9265;DHT22;4669;49.594;10.958;2023-06-24T13:27:41;24.60;79.00
9265;DHT22;4669;49.594;10.958;2023-06-24T13:32:44;24.40;78.70
9265;DHT22;4669;49.594;10.958;2023-06-24T13:37:46;24.70;78.70
9265;DHT22;4669;49.594;10.958;2023-06-24T13:42:48;25.20;79.10
9265;DHT22;4669;49.594;10.958;2023-06-24T13:47:51;25.40;77.90
9265;DHT22;4669;49.594;10.958;2023-06-24T13:52:53;24.90;78.30
9265;DHT22;4669;49.594;10.958;2023-06-24T13:57:54;24.30;77.60
9265;DHT22;4669;49.594;10.958;2023-06-24T14:02:58;24.30;76.70
9265;DHT22;4669;49.594;10.958;2023-06-24T14:08:00;24.80;74.20
9265;DHT22;4669;49.594;10.958;2023-06-24T14:13:02;24.90;75.90
9265;DHT22;4669;49.594;10.958;2023-06-24T14:18:07;24.90;73.90
9265;DHT22;4669;49.594;10.958;2023-06-24T14:23:08;25.00;69.70
9265;DHT22;4669;49.594;10.958;2023-06-24T14:28:10;25.00;67.50
9265;DHT22;4669;49.594;10.958;2023-06-24T14:33:14;25.10;68.80
9265;DHT22;4669;49.594;10.958;2023-06-24T14:38:16;25.50;72.30
9265;DHT22;4669;49.594;10.958;2023-06-24T14:43:18;25.80;70.80
9265;DHT22;4669;49.594;10.958;2023-06-24T14:48:21;26.20;67.60
9265;DHT22;4669;49.594;10.958;2023-06-24T14:53:23;26.40;67.20
9265;DHT22;4669;49.594;10.958;2023-06-24T14:58:25;26.80;67.40
9265;DHT22;4669;49.594;10.958;2023-06-24T15:03:28;27.20;66.00
9265;DHT22;4669;49.594;10.958;2023-06-24T15:08:30;27.70;65.30
9265;DHT22;4669;49.594;10.958;2023-06-24T15:13:32;28.10;65.80
9265;DHT22;4669;49.594;10.958;2023-06-24T15:18:37;28.90;64.60
9265;DHT22;4669;49.594;10.958;2023-06-24T15:23:45;29.80;63.30
9265;DHT22;4669;49.594;10.958;2023-06-24T15:28:47;30.70;59.60
9265;DHT22;4669;49.594;10.958;2023-06-24T15:33:51;31.10;60.30
9265;DHT22;4669;49.594;10.958;2023-06-24T15:38:53;29.90;60.20
9265;DHT22;4669;49.594;10.958;2023-06-24T15:43:55;32.10;59.80
9265;DHT22;4669;49.594;10.958;2023-06-24T15:48:58;34.50;56.40
9265;DHT22;4669;49.594;10.958;2023-06-24T15:54:00;34.60;53.40
9265;DHT22;4669;49.594;10.958;2023-06-24T15:59:02;33.10;53.70
9265;DHT22;4669;49.594;10.958;2023-06-24T16:04:05;31.40;56.20
9265;DHT22;4669;49.594;10.958;2023-06-24T16:09:07;29.90;56.10
9265;DHT22;4669;49.594;10.958;2023-06-24T16:14:09;28.50;58.20
9265;DHT22;4669;49.594;10.958;2023-06-24T16:19:12;27.80;59.10
9265;DHT22;4669;49.594;10.958;2023-06-24T16:24:14;27.60;59.40
9265;DHT22;4669;49.594;10.958;2023-06-24T16:29:16;27.60;58.40
9265;DHT22;4669;49.594;10.958;2023-06-24T16:34:19;27.70;58.80
9265;DHT22;4669;49.594;10.958;2023-06-24T16:39:21;28.00;60.80
9265;DHT22;4669;49.594;10.958;2023-06-24T16:44:23;28.40;62.90
9265;DHT22;4669;49.594;10.958;2023-06-24T16:49:28;29.00;62.10
9265;DHT22;4669;49.594;10.958;2023-06-24T16:54:30;29.50;61.10
9265;DHT22;4669;49.594;10.958;2023-06-24T16:59:32;29.70;60.70
9265;DHT22;4669;49.594;10.958;2023-06-24T17:04:36;29.50;59.90
9265;DHT22;4669;49.594;10.958;2023-06-24T17:09:37;29.10;60.40
9265;DHT22;4669;49.594;10.958;2023-06-24T17:14:39;29.00;60.20
9265;DHT22;4669;49.594;10.958;2023-06-24T17:19:42;29.00;60.90
9265;DHT22;4669;49.594;10.958;2023-06-24T17:24:44;28.70;63.10
9265;DHT22;4669;49.594;10.958;2023-06-24T17:29:46;28.60;62.70
9265;DHT22;4669;49.594;10.958;2023-06-24T17:34:50;28.70;62.20
9265;DHT22;4669;49.594;10.958;2023-06-24T17:39:52;28.60;63.00
9265;DHT22;4669;49.594;10.958;2023-06-24T17:44:54;28.50;63.70
9265;DHT22;4669;49.594;10.958;2023-06-24T17:49:57;28.50;63.60
9265;DHT22;4669;49.594;10.958;2023-06-24T17:54:59;28.50;63.00
9265;DHT22;4669;49.594;10.958;2023-06-24T18:00:03;28.30;63.60
9265;DHT22;4669;49.594;10.958;2023-06-24T18:05:07;28.10;63.80
9265;DHT22;4669;49.594;10.958;2023-06-24T18:10:10;27.80;64.40
9265;DHT22;4669;49.594;10.958;2023-06-24T18:15:12;27.50;64.60
9265;DHT22;4669;49.594;10.958;2023-06-24T18:20:16;27.10;65.60
9265;DHT22;4669;49.594;10.958;2023-06-24T18:25:18;26.70;67.00
9265;DHT22;4669;49.594;10.958;2023-06-24T18:30:19;26.20;67.50
9265;DHT22;4669;49.594;10.958;2023-06-24T18:35:23;25.80;67.90
9265;DHT22;4669;49.594;10.958;2023-06-24T18:40:25;25.60;68.70
9265;DHT22;4669;49.594;10.958;2023-06-24T18:45:27;25.30;69.50
9265;DHT22;4669;49.594;10.958;2023-06-24T18:50:32;25.10;70.10
9265;DHT22;4669;49.594;10.958;2023-06-24T18:55:33;24.90;70.40
9265;DHT22;4669;49.594;10.958;2023-06-24T19:00:37;24.70;70.00
9265;DHT22;4669;49.594;10.958;2023-06-24T19:05:43;24.60;71.00
9265;DHT22;4669;49.594;10.958;2023-06-24T19:10:44;24.50;71.40
9265;DHT22;4669;49.594;10.958;2023-06-24T19:15:46;24.40;71.90
9265;DHT22;4669;49.594;10.958;2023-06-24T19:20:49;24.20;72.50
9265;DHT22;4669;49.594;10.958;2023-06-24T19:25:51;24.10;74.20
9265;DHT22;4669;49.594;10.958;2023-06-24T19:30:53;24.00;73.60
9265;DHT22;4669;49.594;10.958;2023-06-24T19:35:56;23.80;75.20
9265;DHT22;4669;49.594;10.958;2023-06-24T19:40:58;23.70;76.20
9265;DHT22;4669;49.594;10.958;2023-06-24T19:46:00;23.60;77.30
9265;DHT22;4669;49.594;10.958;2023-06-24T19:51:03;23.50;78.50
9265;DHT22;4669;49.594;10.958;2023-06-24T19:56:05;23.40;79.10
9265;DHT22;4669;49.594;10.958;2023-06-24T20:01:07;23.30;80.40
9265;DHT22;4669;49.594;10.958;2023-06-24T20:06:10;23.20;81.20
9265;DHT22;4669;49.594;10.958;2023-06-24T20:11:12;23.00;81.80
9265;DHT22;4669;49.594;10.958;2023-06-24T20:16:15;22.90;83.20
9265;DHT22;4669;49.594;10.958;2023-06-24T20:21:18;22.80;84.00
9265;DHT22;4669;49.594;10.958;2023-06-24T20:26:20;22.70;85.10
9265;DHT22;4669;49.594;10.958;2023-06-24T20:31:22;22.60;85.60
9265;DHT22;4669;49.594;10.958;2023-06-24T20:36:25;22.60;85.60
9265;DHT22;4669;49.594;10.958;2023-06-24T20:41:29;22.50;86.20
9265;DHT22;4669;49.594;10.958;2023-06-24T20:46:32;22.40;86.70
9265;DHT22;4669;49.594;10.958;2023-06-24T20:51:35;22.30;87.70
9265;DHT22;4669;49.594;10.958;2023-06-24T20:56:40;22.20;88.20
9265;DHT22;4669;49.594;10.958;2023-06-24T21:01:41;22.10;88.50
9265;DHT22;4669;49.594;10.958;2023-06-24T21:06:45;22.00;89.00
9265;DHT22;4669;49.594;10.958;2023-06-24T21:11:46;21.90;89.50
9265;DHT22;4669;49.594;10.958;2023-06-24T21:16:48;21.90;89.20
9265;DHT22;4669;49.594;10.958;2023-06-24T21:21:51;21.80;90.00
9265;DHT22;4669;49.594;10.958;2023-06-24T21:26:53;21.80;89.00
9265;DHT22;4669;49.594;10.958;2023-06-24T21:31:55;21.70;89.30
9265;DHT22;4669;49.594;10.958;2023-06-24T21:36:58;21.70;89.90
9265;DHT22;4669;49.594;10.958;2023-06-24T21:42:00;21.60;90.00
9265;DHT22;4669;49.594;10.958;2023-06-24T21:47:02;21.50;90.10
9265;DHT22;4669;49.594;10.958;2023-06-24T21:52:06;21.60;90.50
9265;DHT22;4669;49.594;10.958;2023-06-24T21:57:08;21.50;91.10
